sensor_id;sensor_type;location;lat;lon;timestamp;pressure;altitude;pressure_sealevel;temperature;humidity
58775;BME280;44545;47.480;19.024;2023-09-18T03:23:11;100372.53;;;17.40;100.00
58775;BME280;44545;47.480;19.024;2023-09-18T03:26:14;100375.75;;;17.63;100.00
58775;BME280;44545;47.480;19.024;2023-09-18T03:29:16;100374.06;;;17.66;100.00
58775;BME280;44545;47.480;19.024;2023-09-18T03:32:19;100374.75;;;17.59;100.00
58775;BME280;44545;47.480;19.024;2023-09-18T03:35:22;100373.19;;;17.66;100.00
58775;BME280;44545;47.480;19.024;2023-09-18T03:38:25;100371.41;;;17.65;100.00
58775;BME280;44545;47.480;19.024;2023-09-18T03:41:27;100372.28;;;17.65;100.00
58775;BME280;44545;47.480;19.024;2023-09-18T03:44:32;100369.78;;;17.70;100.00
58775;BME280;44545;47.480;19.024;2023-09-18T03:47:38;100369.84;;;17.73;100.00
58775;BME280;44545;47.480;19.024;2023-09-18T03:50:42;100369.16;;;17.47;100.00
58775;BME280;44545;47.480;19.024;2023-09-18T03:53:44;100368.66;;;17.62;100.00
58775;BME280;44545;47.480;19.024;2023-09-18T03:56:47;100366.28;;;17.71;100.00
58775;BME280;44545;47.480;19.024;2023-09-18T03:59:50;100369.31;;;17.86;100.00
58775;BME280;44545;47.480;19.024;2023-09-18T04:02:52;100369.06;;;17.77;100.00
58775;BME280;44545;47.480;19.024;2023-09-18T04:05:55;100364.12;;;17.89;100.00
58775;BME280;44545;47.480;19.024;2023-09-18T04:08:57;100356.19;;;17.89;100.00
58775;BME280;44545;47.480;19.024;2023-09-18T04:12:01;100361.44;;;17.53;100.00
58775;BME280;44545;47.480;19.024;2023-09-18T04:15:04;100358.22;;;17.65;100.00
58775;BME280;44545;47.480;19.024;2023-09-18T04:18:08;100358.47;;;17.75;100.00
58775;BME280;44545;47.480;19.024;2023-09-18T04:21:10;100352.41;;;17.78;100.00
58775;BME280;44545;47.480;19.024;2023-09-18T04:24:13;100351.16;;;17.98;100.00
58775;BME280;44545;47.480;19.024;2023-09-18T04:27:16;100348.09;;;17.82;100.00
58775;BME280;44545;47.480;19.024;2023-09-18T04:30:19;100343.53;;;17.76;100.00
58775;BME280;44545;47.480;19.024;2023-09-18T04:33:22;100344.22;;;17.67;100.00
58775;BME280;44545;47.480;19.024;2023-09-18T04:36:25;100350.38;;;17.68;100.00
58775;BME280;44545;47.480;19.024;2023-09-18T04:39:28;100349.63;;;17.73;100.00
58775;BME280;44545;47.480;19.024;2023-09-18T04:42:33;100350.81;;;17.50;100.00
58775;BME280;44545;47.480;19.024;2023-09-18T04:45:36;100354.47;;;17.55;100.00
58775;BME280;44545;47.480;19.024;2023-09-18T04:48:39;100363.06;;;17.49;100.00
58775;BME280;44545;47.480;19.024;2023-09-18T04:51:41;100358.13;;;17.62;100.00
58775;BME280;44545;47.480;19.024;2023-09-18T04:54:44;100361.69;;;17.64;100.00
58775;BME280;44545;47.480;19.024;2023-09-18T04:57:46;100354.38;;;17.85;100.00
58775;BME280;44545;47.480;19.024;2023-09-18T05:00:56;100360.31;;;17.78;100.00
58775;BME280;44545;47.480;19.024;2023-09-18T05:03:59;100352.72;;;17.90;100.00
58775;BME280;44545;47.480;19.024;2023-09-18T05:07:02;100348.87;;;17.79;100.00
58775;BME280;44545;47.480;19.024;2023-09-18T05:10:08;100356.69;;;18.09;100.00
58775;BME280;44545;47.480;19.024;2023-09-18T05:13:11;100353.16;;;18.09;100.00
58775;BME280;44545;47.480;19.024;2023-09-18T05:16:14;100353.16;;;18.09;100.00
58775;BME280;44545;47.480;19.024;2023-09-18T05:19:16;100346.16;;;18.11;100.00
58775;BME280;44545;47.480;19.024;2023-09-18T05:22:19;100345.00;;;18.00;100.00
58775;BME280;44545;47.480;19.024;2023-09-18T05:25:22;100348.47;;;17.97;100.00
58775;BME280;44545;47.480;19.024;2023-09-18T05:28:25;100353.47;;;18.23;100.00
58775;BME280;44545;47.480;19.024;2023-09-18T05:31:28;100354.44;;;18.28;100.00
58775;BME280;44545;47.480;19.024;2023-09-18T05:34:30;100360.00;;;18.38;100.00
58775;BME280;44545;47.480;19.024;2023-09-18T05:37:34;100358.09;;;18.33;100.00
58775;BME280;44545;47.480;19.024;2023-09-18T05:40:40;100357.47;;;18.45;100.00
58775;BME280;44545;47.480;19.024;2023-09-18T05:43:43;100352.25;;;18.48;100.00
58775;BME280;44545;47.480;19.024;2023-09-18T05:46:46;100349.03;;;18.61;100.00
58775;BME280;44545;47.480;19.024;2023-09-18T05:49:48;100345.72;;;18.71;100.00
58775;BME280;44545;47.480;19.024;2023-09-18T05:52:51;100331.59;;;19.63;100.00
58775;BME280;44545;47.480;19.024;2023-09-18T05:55:54;100326.94;;;21.40;100.00
58775;BME280;44545;47.480;19.024;2023-09-18T05:58:58;100317.03;;;22.37;97.03
58775;BME280;44545;47.480;19.024;2023-09-18T06:02:01;100332.31;;;22.87;93.56
58775;BME280;44545;47.480;19.024;2023-09-18T06:05:06;100324.44;;;23.04;89.34
58775;BME280;44545;47.480;19.024;2023-09-18T06:08:08;100320.03;;;23.28;88.53
58775;BME280;44545;47.480;19.024;2023-09-18T06:11:11;100328.91;;;23.54;86.01
58775;BME280;44545;47.480;19.024;2023-09-18T06:14:14;100317.31;;;22.97;87.16
58775;BME280;44545;47.480;19.024;2023-09-18T06:17:17;100322.50;;;22.76;89.22
58775;BME280;44545;47.480;19.024;2023-09-18T06:20:19;100324.94;;;22.23;92.27
58775;BME280;44545;47.480;19.024;2023-09-18T06:23:22;100322.66;;;21.56;96.15
58775;BME280;44545;47.480;19.024;2023-09-18T06:26:24;100328.63;;;21.35;99.16
58775;BME280;44545;47.480;19.024;2023-09-18T06:29:27;100331.47;;;21.52;98.44
58775;BME280;44545;47.480;19.024;2023-09-18T06:32:30;100320.84;;;21.54;98.66
58775;BME280;44545;47.480;19.024;2023-09-18T06:35:32;100319.91;;;21.46;98.43
58775;BME280;44545;47.480;19.024;2023-09-18T06:38:35;100318.69;;;21.16;100.00
58775;BME280;44545;47.480;19.024;2023-09-18T06:41:37;100315.22;;;21.21;99.83
58775;BME280;44545;47.480;19.024;2023-09-18T06:44:40;100316.06;;;21.19;99.56
58775;BME280;44545;47.480;19.024;2023-09-18T06:47:44;100315.34;;;21.32;99.29
58775;BME280;44545;47.480;19.024;2023-09-18T06:50:46;100319.34;;;21.86;97.33
58775;BME280;44545;47.480;19.024;2023-09-18T06:53:49;100323.09;;;22.16;95.72
58775;BME280;44545;47.480;19.024;2023-09-18T06:56:51;100309.03;;;22.33;92.89
58775;BME280;44545;47.480;19.024;2023-09-18T06:59:54;100318.72;;;22.23;95.12
58775;BME280;44545;47.480;19.024;2023-09-18T07:02:57;100302.88;;;22.43;92.71
58775;BME280;44545;47.480;19.024;2023-09-18T07:06:00;100309.09;;;22.42;92.08
58775;BME280;44545;47.480;19.024;2023-09-18T07:09:03;100310.91;;;22.46;92.08
58775;BME280;44545;47.480;19.024;2023-09-18T07:12:09;100307.16;;;22.18;93.60
58775;BME280;44545;47.480;19.024;2023-09-18T07:15:12;100315.97;;;22.09;94.30
58775;BME280;44545;47.480;19.024;2023-09-18T07:18:15;100308.66;;;21.79;96.15
58775;BME280;44545;47.480;19.024;2023-09-18T07:21:18;100311.31;;;21.77;96.09
58775;BME280;44545;47.480;19.024;2023-09-18T07:24:20;100312.13;;;21.66;97.37
58775;BME280;44545;47.480;19.024;2023-09-18T07:27:23;100313.81;;;21.56;100.00
58775;BME280;44545;47.480;19.024;2023-09-18T07:30:26;100314.06;;;21.88;98.05
58775;BME280;44545;47.480;19.024;2023-09-18T07:33:29;100310.97;;;21.37;99.24
58775;BME280;44545;47.480;19.024;2023-09-18T07:36:32;100307.78;;;21.78;98.14
58775;BME280;44545;47.480;19.024;2023-09-18T07:39:34;100308.53;;;21.62;99.37
58775;BME280;44545;47.480;19.024;2023-09-18T07:42:37;100313.06;;;21.74;97.95
58775;BME280;44545;47.480;19.024;2023-09-18T07:45:40;100310.66;;;22.09;97.57
58775;BME280;44545;47.480;19.024;2023-09-18T07:48:42;100304.69;;;22.44;94.46
58775;BME280;44545;47.480;19.024;2023-09-18T07:51:45;100308.16;;;22.34;94.74
58775;BME280;44545;47.480;19.024;2023-09-18T07:54:48;100309.09;;;22.45;93.62
58775;BME280;44545;47.480;19.024;2023-09-18T07:57:50;100307.31;;;22.39;93.77
58775;BME280;44545;47.480;19.024;2023-09-18T08:00:56;100298.28;;;22.14;95.96
58775;BME280;44545;47.480;19.024;2023-09-18T08:04:02;100301.94;;;22.33;96.17
58775;BME280;44545;47.480;19.024;2023-09-18T08:07:04;100304.53;;;22.19;96.00
58775;BME280;44545;47.480;19.024;2023-09-18T08:10:11;100296.47;;;22.07;97.47
58775;BME280;44545;47.480;19.024;2023-09-18T08:13:15;100290.12;;;21.83;99.36
58775;BME280;44545;47.480;19.024;2023-09-18T08:16:17;100291.19;;;22.12;97.66
58775;BME280;44545;47.480;19.024;2023-09-18T08:19:20;100285.97;;;22.22;97.80
58775;BME280;44545;47.480;19.024;2023-09-18T08:22:23;100268.41;;;22.60;96.99
58775;BME280;44545;47.480;19.024;2023-09-18T08:25:25;100273.63;;;22.37;95.69
58775;BME280;44545;47.480;19.024;2023-09-18T08:28:30;100252.44;;;22.58;95.47
58775;BME280;44545;47.480;19.024;2023-09-18T08:31:32;100263.06;;;22.47;96.23
58775;BME280;44545;47.480;19.024;2023-09-18T08:34:35;100257.84;;;22.83;95.42
58775;BME280;44545;47.480;19.024;2023-09-18T08:37:37;100256.97;;;22.87;93.66
58775;BME280;44545;47.480;19.024;2023-09-18T08:40:41;100256.12;;;23.03;94.08
58775;BME280;44545;47.480;19.024;2023-09-18T08:43:45;100257.91;;;23.13;91.85
58775;BME280;44545;47.480;19.024;2023-09-18T08:46:50;100255.25;;;23.56;91.27
58775;BME280;44545;47.480;19.024;2023-09-18T08:49:54;100244.59;;;23.72;88.31
58775;BME280;44545;47.480;19.024;2023-09-18T08:52:58;100254.41;;;23.76;89.38
58775;BME280;44545;47.480;19.024;2023-09-18T08:56:02;100249.03;;;23.91;89.05
58775;BME280;44545;47.480;19.024;2023-09-18T08:59:06;100247.22;;;23.99;88.22
58775;BME280;44545;47.480;19.024;2023-09-18T09:02:08;100256.09;;;24.06;87.75
58775;BME280;44545;47.480;19.024;2023-09-18T09:05:14;100249.91;;;23.72;88.28
58775;BME280;44545;47.480;19.024;2023-09-18T09:08:16;100246.38;;;23.88;89.14
58775;BME280;44545;47.480;19.024;2023-09-18T09:11:19;100253.44;;;24.05;86.63
58775;BME280;44545;47.480;19.024;2023-09-18T09:14:22;100249.00;;;24.07;85.76
58775;BME280;44545;47.480;19.024;2023-09-18T09:17:30;100256.00;;;24.37;85.92
58775;BME280;44545;47.480;19.024;2023-09-18T09:20:33;100264.03;;;24.31;85.36
58775;BME280;44545;47.480;19.024;2023-09-18T09:26:57;100251.56;;;24.33;85.58
58775;BME280;44545;47.480;19.024;2023-09-18T09:30:01;100254.09;;;24.70;82.11
58775;BME280;44545;47.480;19.024;2023-09-18T09:33:04;100248.78;;;24.67;82.38
58775;BME280;44545;47.480;19.024;2023-09-18T09:36:07;100239.66;;;25.01;81.79
58775;BME280;44545;47.480;19.024;2023-09-18T09:39:10;100244.94;;;25.09;81.08
58775;BME280;44545;47.480;19.024;2023-09-18T09:42:18;100245.62;;;25.40;78.81
58775;BME280;44545;47.480;19.024;2023-09-18T09:45:27;100245.38;;;25.66;78.69
58775;BME280;44545;47.480;19.024;2023-09-18T09:48:32;100248.09;;;25.63;77.20
58775;BME280;44545;47.480;19.024;2023-09-18T09:51:35;100237.28;;;25.76;77.09
58775;BME280;44545;47.480;19.024;2023-09-18T09:54:38;100234.22;;;26.12;74.61
58775;BME280;44545;47.480;19.024;2023-09-18T09:57:57;100220.41;;;26.49;71.83
58775;BME280;44545;47.480;19.024;2023-09-18T10:01:06;100219.31;;;26.66;69.57
58775;BME280;44545;47.480;19.024;2023-09-18T10:04:15;100207.56;;;26.76;69.87
58775;BME280;44545;47.480;19.024;2023-09-18T10:07:20;100201.19;;;26.85;69.81
58775;BME280;44545;47.480;19.024;2023-09-18T10:10:22;100198.34;;;27.50;66.50
58775;BME280;44545;47.480;19.024;2023-09-18T10:16:53;100187.53;;;28.02;62.09
58775;BME280;44545;47.480;19.024;2023-09-18T10:20:08;100182.56;;;28.68;62.42
58775;BME280;44545;47.480;19.024;2023-09-18T10:23:29;100176.56;;;29.66;57.08
58775;BME280;44545;47.480;19.024;2023-09-18T10:26:44;100193.06;;;30.16;52.95
58775;BME280;44545;47.480;19.024;2023-09-18T10:29:52;100187.56;;;30.78;51.62
58775;BME280;44545;47.480;19.024;2023-09-18T10:32:56;100185.66;;;31.38;49.13
58775;BME280;44545;47.480;19.024;2023-09-18T10:36:02;100176.56;;;32.39;47.22
58775;BME280;44545;47.480;19.024;2023-09-18T10:39:06;100157.91;;;32.10;45.80
58775;BME280;44545;47.480;19.024;2023-09-18T10:42:13;100155.50;;;32.49;45.78
58775;BME280;44545;47.480;19.024;2023-09-18T10:45:19;100199.94;;;33.92;41.99
58775;BME280;44545;47.480;19.024;2023-09-18T10:48:22;100190.09;;;34.11;40.76
58775;BME280;44545;47.480;19.024;2023-09-18T10:51:26;100202.38;;;35.30;39.13
58775;BME280;44545;47.480;19.024;2023-09-18T10:54:30;100211.38;;;35.13;37.36
58775;BME280;44545;47.480;19.024;2023-09-18T10:57:34;100242.78;;;36.55;35.02
58775;BME280;44545;47.480;19.024;2023-09-18T11:00:37;100312.94;;;38.79;31.52
58775;BME280;44545;47.480;19.024;2023-09-18T11:03:40;100326.88;;;39.44;29.76
58775;BME280;44545;47.480;19.024;2023-09-18T11:07:01;100392.53;;;41.75;26.86
58775;BME280;44545;47.480;19.024;2023-09-18T11:10:27;100405.22;;;42.24;25.31
58775;BME280;44545;47.480;19.024;2023-09-18T11:13:34;100428.75;;;43.86;23.86
58775;BME280;44545;47.480;19.024;2023-09-18T11:16:36;100415.41;;;43.70;23.40
58775;BME280;44545;47.480;19.024;2023-09-18T11:19:41;100399.81;;;43.70;23.01
58775;BME280;44545;47.480;19.024;2023-09-18T11:26:15;100419.38;;;44.84;21.82
58775;BME280;44545;47.480;19.024;2023-09-18T11:29:21;100427.56;;;44.95;21.21
58775;BME280;44545;47.480;19.024;2023-09-18T11:32:37;100364.19;;;42.58;23.02
58775;BME280;44545;47.480;19.024;2023-09-18T11:35:51;100208.88;;;39.81;26.59
58775;BME280;44545;47.480;19.024;2023-09-18T11:38:57;100167.19;;;39.12;28.16
58775;BME280;44545;47.480;19.024;2023-09-18T11:42:11;100080.44;;;36.29;31.68
58775;BME280;44545;47.480;19.024;2023-09-18T11:45:17;99972.28;;;33.63;36.44
58775;BME280;44545;47.480;19.024;2023-09-18T11:48:20;100006.25;;;33.29;37.45
58775;BME280;44545;47.480;19.024;2023-09-18T11:51:23;99998.56;;;32.99;38.47
58775;BME280;44545;47.480;19.024;2023-09-18T11:54:29;100021.62;;;32.66;39.16
58775;BME280;44545;47.480;19.024;2023-09-18T11:57:37;100026.22;;;31.50;39.93
58775;BME280;44545;47.480;19.024;2023-09-18T12:00:40;100001.53;;;30.87;42.54
58775;BME280;44545;47.480;19.024;2023-09-18T12:03:59;100018.75;;;30.55;42.89
58775;BME280;44545;47.480;19.024;2023-09-18T12:07:05;100026.97;;;30.24;43.95
58775;BME280;44545;47.480;19.024;2023-09-18T12:10:08;100024.31;;;29.93;44.94
58775;BME280;44545;47.480;19.024;2023-09-18T12:13:12;100028.69;;;30.27;44.33
58775;BME280;44545;47.480;19.024;2023-09-18T12:16:15;100023.94;;;30.05;44.74
58775;BME280;44545;47.480;19.024;2023-09-18T12:19:17;100026.25;;;30.17;44.78
58775;BME280;44545;47.480;19.024;2023-09-18T12:22:27;100035.41;;;30.40;43.65
58775;BME280;44545;47.480;19.024;2023-09-18T12:25:30;100007.50;;;30.44;44.70
58775;BME280;44545;47.480;19.024;2023-09-18T12:28:35;100016.94;;;30.29;44.63
58775;BME280;44545;47.480;19.024;2023-09-18T12:31:37;100015.09;;;30.31;44.22
58775;BME280;44545;47.480;19.024;2023-09-18T12:34:41;100019.38;;;30.37;44.28
58775;BME280;44545;47.480;19.024;2023-09-18T12:37:44;100020.78;;;29.92;44.01
58775;BME280;44545;47.480;19.024;2023-09-18T12:40:47;99996.41;;;29.69;45.76
58775;BME280;44545;47.480;19.024;2023-09-18T12:43:50;100000.63;;;29.46;45.20
58775;BME280;44545;47.480;19.024;2023-09-18T12:46:53;99992.84;;;29.37;45.59
58775;BME280;44545;47.480;19.024;2023-09-18T12:50:02;99983.56;;;29.47;45.82
58775;BME280;44545;47.480;19.024;2023-09-18T12:53:13;99986.37;;;29.44;45.88
58775;BME280;44545;47.480;19.024;2023-09-18T12:56:15;99983.06;;;29.34;45.93
58775;BME280;44545;47.480;19.024;2023-09-18T12:59:18;99986.75;;;29.62;45.63
58775;BME280;44545;47.480;19.024;2023-09-18T13:02:21;99978.34;;;29.74;45.22
58775;BME280;44545;47.480;19.024;2023-09-18T13:05:31;99976.97;;;29.59;46.38
58775;BME280;44545;47.480;19.024;2023-09-18T13:08:37;99981.72;;;29.20;46.05
58775;BME280;44545;47.480;19.024;2023-09-18T13:11:56;99972.00;;;29.15;46.34
58775;BME280;44545;47.480;19.024;2023-09-18T13:15:00;99986.56;;;29.38;45.97
58775;BME280;44545;47.480;19.024;2023-09-18T13:18:21;99975.97;;;29.63;45.75
58775;BME280;44545;47.480;19.024;2023-09-18T13:21:26;99960.16;;;29.82;45.93
58775;BME280;44545;47.480;19.024;2023-09-18T13:24:30;99965.09;;;29.68;44.72
58775;BME280;44545;47.480;19.024;2023-09-18T13:27:33;99948.16;;;29.34;46.38
58775;BME280;44545;47.480;19.024;2023-09-18T13:30:37;99958.62;;;29.44;46.15
58775;BME280;44545;47.480;19.024;2023-09-18T13:33:42;99951.75;;;29.35;45.98
58775;BME280;44545;47.480;19.024;2023-09-18T13:36:47;99937.19;;;29.12;46.51
58775;BME280;44545;47.480;19.024;2023-09-18T13:39:49;99932.72;;;29.11;46.71
58775;BME280;44545;47.480;19.024;2023-09-18T13:42:53;99916.38;;;29.19;46.67
58775;BME280;44545;47.480;19.024;2023-09-18T13:45:56;99916.00;;;29.31;47.20
58775;BME280;44545;47.480;19.024;2023-09-18T13:48:59;99917.09;;;29.26;46.09
58775;BME280;44545;47.480;19.024;2023-09-18T13:52:02;99902.47;;;29.05;47.27
58775;BME280;44545;47.480;19.024;2023-09-18T13:55:06;99891.41;;;27.83;49.95
58775;BME280;44545;47.480;19.024;2023-09-18T13:58:08;99908.13;;;27.54;50.98
58775;BME280;44545;47.480;19.024;2023-09-18T14:01:11;99908.53;;;27.35;51.56
58775;BME280;44545;47.480;19.024;2023-09-18T14:04:14;99891.19;;;27.52;51.75
58775;BME280;44545;47.480;19.024;2023-09-18T14:07:17;99901.78;;;27.58;51.59
58775;BME280;44545;47.480;19.024;2023-09-18T14:10:20;99895.53;;;27.96;51.39
58775;BME280;44545;47.480;19.024;2023-09-18T14:13:24;99887.63;;;27.90;51.01
58775;BME280;44545;47.480;19.024;2023-09-18T14:16:27;99890.84;;;28.04;50.92
58775;BME280;44545;47.480;19.024;2023-09-18T14:19:29;99885.59;;;28.00;50.54
58775;BME280;44545;47.480;19.024;2023-09-18T14:22:33;99876.25;;;27.80;51.81
58775;BME280;44545;47.480;19.024;2023-09-18T14:25:35;99870.59;;;28.28;50.06
58775;BME280;44545;47.480;19.024;2023-09-18T14:28:38;99867.34;;;28.50;48.91
58775;BME280;44545;47.480;19.024;2023-09-18T14:31:41;99854.13;;;28.41;49.77
58775;BME280;44545;47.480;19.024;2023-09-18T14:34:44;99855.47;;;28.24;49.44
58775;BME280;44545;47.480;19.024;2023-09-18T14:37:47;99855.09;;;28.38;49.21
58775;BME280;44545;47.480;19.024;2023-09-18T14:40:51;99857.63;;;28.10;49.28
58775;BME280;44545;47.480;19.024;2023-09-18T14:43:53;99867.50;;;28.08;49.32
58775;BME280;44545;47.480;19.024;2023-09-18T14:46:58;99854.28;;;27.64;50.46
58775;BME280;44545;47.480;19.024;2023-09-18T14:50:01;99842.78;;;27.59;50.93
58775;BME280;44545;47.480;19.024;2023-09-18T14:53:04;99850.44;;;27.76;49.54
58775;BME280;44545;47.480;19.024;2023-09-18T14:56:09;99846.00;;;27.75;49.94
58775;BME280;44545;47.480;19.024;2023-09-18T14:59:15;99845.66;;;27.91;49.35
58775;BME280;44545;47.480;19.024;2023-09-18T15:02:33;99839.03;;;28.04;49.25
58775;BME280;44545;47.480;19.024;2023-09-18T15:05:37;99833.37;;;28.16;48.51
58775;BME280;44545;47.480;19.024;2023-09-18T15:08:40;99846.69;;;28.19;48.24
58775;BME280;44545;47.480;19.024;2023-09-18T15:11:43;99833.91;;;27.95;48.59
58775;BME280;44545;47.480;19.024;2023-09-18T15:14:45;99829.41;;;27.97;49.20
58775;BME280;44545;47.480;19.024;2023-09-18T15:17:48;99825.56;;;28.07;49.21
58775;BME280;44545;47.480;19.024;2023-09-18T15:20:50;99832.47;;;27.81;49.96
58775;BME280;44545;47.480;19.024;2023-09-18T15:23:56;99830.88;;;27.73;50.38
58775;BME280;44545;47.480;19.024;2023-09-18T15:26:59;99830.88;;;27.73;49.56
58775;BME280;44545;47.480;19.024;2023-09-18T15:30:05;99817.53;;;27.70;49.65
58775;BME280;44545;47.480;19.024;2023-09-18T15:33:08;99812.13;;;28.08;48.91
58775;BME280;44545;47.480;19.024;2023-09-18T15:36:11;99801.75;;;27.95;49.08
